sensor_id;sensor_type;location;lat;lon;timestamp;P1;durP1;ratioP1;P2;durP2;ratioP2
45392;SDS011;31129;44.810;10.334;2023-07-13T00:00:37;16.48;;;2.38;;
45392;SDS011;31129;44.810;10.334;2023-07-13T00:03:03;14.00;;;2.65;;
45392;SDS011;31129;44.810;10.334;2023-07-13T00:05:29;12.60;;;2.55;;
45392;SDS011;31129;44.810;10.334;2023-07-13T00:07:55;12.32;;;1.73;;
45392;SDS011;31129;44.810;10.334;2023-07-13T00:10:21;7.72;;;1.88;;
45392;SDS011;31129;44.810;10.334;2023-07-13T00:12:47;10.43;;;2.30;;
45392;SDS011;31129;44.810;10.334;2023-07-13T00:15:14;13.23;;;1.92;;
45392;SDS011;31129;44.810;10.334;2023-07-13T00:17:41;9.57;;;1.50;;
45392;SDS011;31129;44.810;10.334;2023-07-13T00:20:10;14.77;;;2.67;;
45392;SDS011;31129;44.810;10.334;2023-07-13T00:22:36;10.10;;;2.08;;
45392;SDS011;31129;44.810;10.334;2023-07-13T00:25:02;7.45;;;2.30;;
45392;SDS011;31129;44.810;10.334;2023-07-13T00:27:28;7.72;;;1.98;;
45392;SDS011;31129;44.810;10.334;2023-07-13T00:29:57;9.60;;;1.52;;
45392;SDS011;31129;44.810;10.334;2023-07-13T00:32:23;8.53;;;1.40;;
45392;SDS011;31129;44.810;10.334;2023-07-13T00:34:52;3.92;;;1.33;;
45392;SDS011;31129;44.810;10.334;2023-07-13T00:37:18;3.60;;;1.17;;
45392;SDS011;31129;44.810;10.334;2023-07-13T00:39:44;5.28;;;1.02;;
45392;SDS011;31129;44.810;10.334;2023-07-13T00:42:10;7.13;;;1.52;;
45392;SDS011;31129;44.810;10.334;2023-07-13T00:44:36;4.65;;;1.40;;
45392;SDS011;31129;44.810;10.334;2023-07-13T00:47:01;6.57;;;1.45;;
45392;SDS011;31129;44.810;10.334;2023-07-13T00:49:28;4.07;;;1.35;;
45392;SDS011;31129;44.810;10.334;2023-07-13T00:51:59;7.85;;;1.45;;
45392;SDS011;31129;44.810;10.334;2023-07-13T00:54:35;5.55;;;1.60;;
45392;SDS011;31129;44.810;10.334;2023-07-13T00:57:04;8.35;;;3.20;;
45392;SDS011;31129;44.810;10.334;2023-07-13T00:59:32;5.47;;;1.55;;
45392;SDS011;31129;44.810;10.334;2023-07-13T01:02:02;7.45;;;1.42;;
45392;SDS011;31129;44.810;10.334;2023-07-13T01:04:28;3.50;;;1.50;;
45392;SDS011;31129;44.810;10.334;2023-07-13T01:06:54;5.93;;;1.40;;
45392;SDS011;31129;44.810;10.334;2023-07-13T01:09:20;5.95;;;2.25;;
45392;SDS011;31129;44.810;10.334;2023-07-13T01:11:46;10.52;;;2.72;;
45392;SDS011;31129;44.810;10.334;2023-07-13T01:14:12;5.18;;;1.33;;
45392;SDS011;31129;44.810;10.334;2023-07-13T01:16:37;6.30;;;1.67;;
45392;SDS011;31129;44.810;10.334;2023-07-13T01:19:08;8.32;;;1.52;;
45392;SDS011;31129;44.810;10.334;2023-07-13T01:21:43;5.88;;;1.60;;
45392;SDS011;31129;44.810;10.334;2023-07-13T01:24:14;10.80;;;2.10;;
45392;SDS011;31129;44.810;10.334;2023-07-13T01:26:40;6.45;;;1.73;;
45392;SDS011;31129;44.810;10.334;2023-07-13T01:29:06;8.63;;;2.05;;
45392;SDS011;31129;44.810;10.334;2023-07-13T01:31:32;8.02;;;1.70;;
45392;SDS011;31129;44.810;10.334;2023-07-13T01:33:58;7.00;;;1.50;;
45392;SDS011;31129;44.810;10.334;2023-07-13T01:36:24;7.78;;;1.85;;
45392;SDS011;31129;44.810;10.334;2023-07-13T01:38:49;9.80;;;1.67;;
45392;SDS011;31129;44.810;10.334;2023-07-13T01:41:15;7.78;;;1.50;;
45392;SDS011;31129;44.810;10.334;2023-07-13T01:43:40;7.90;;;2.20;;
45392;SDS011;31129;44.810;10.334;2023-07-13T01:46:06;10.02;;;1.90;;
45392;SDS011;31129;44.810;10.334;2023-07-13T01:48:32;6.65;;;2.35;;
45392;SDS011;31129;44.810;10.334;2023-07-13T01:50:59;10.98;;;2.40;;
45392;SDS011;31129;44.810;10.334;2023-07-13T01:53:24;2.78;;;1.40;;
45392;SDS011;31129;44.810;10.334;2023-07-13T01:55:50;8.57;;;2.00;;
45392;SDS011;31129;44.810;10.334;2023-07-13T01:58:15;7.60;;;2.55;;
45392;SDS011;31129;44.810;10.334;2023-07-13T02:00:41;6.78;;;2.25;;
45392;SDS011;31129;44.810;10.334;2023-07-13T02:03:06;9.43;;;1.50;;
45392;SDS011;31129;44.810;10.334;2023-07-13T02:05:32;16.90;;;2.08;;
45392;SDS011;31129;44.810;10.334;2023-07-13T02:07:57;8.30;;;1.65;;
45392;SDS011;31129;44.810;10.334;2023-07-13T02:10:23;8.57;;;1.30;;
45392;SDS011;31129;44.810;10.334;2023-07-13T02:12:49;8.15;;;1.60;;
45392;SDS011;31129;44.810;10.334;2023-07-13T02:15:15;8.35;;;1.40;;
45392;SDS011;31129;44.810;10.334;2023-07-13T02:17:41;11.30;;;1.75;;
45392;SDS011;31129;44.810;10.334;2023-07-13T02:20:07;4.70;;;1.25;;
45392;SDS011;31129;44.810;10.334;2023-07-13T02:22:33;9.18;;;2.30;;
45392;SDS011;31129;44.810;10.334;2023-07-13T02:24:59;6.65;;;2.13;;
45392;SDS011;31129;44.810;10.334;2023-07-13T02:27:24;5.22;;;1.48;;
45392;SDS011;31129;44.810;10.334;2023-07-13T02:29:50;5.18;;;1.92;;
45392;SDS011;31129;44.810;10.334;2023-07-13T02:32:16;5.10;;;1.35;;
45392;SDS011;31129;44.810;10.334;2023-07-13T02:34:43;8.97;;;2.07;;
45392;SDS011;31129;44.810;10.334;2023-07-13T02:37:08;4.88;;;1.65;;
45392;SDS011;31129;44.810;10.334;2023-07-13T02:39:34;9.32;;;1.90;;
45392;SDS011;31129;44.810;10.334;2023-07-13T02:42:01;5.18;;;3.40;;
45392;SDS011;31129;44.810;10.334;2023-07-13T02:44:27;16.05;;;2.45;;
45392;SDS011;31129;44.810;10.334;2023-07-13T02:46:52;5.97;;;2.28;;
45392;SDS011;31129;44.810;10.334;2023-07-13T02:49:18;7.75;;;1.88;;
45392;SDS011;31129;44.810;10.334;2023-07-13T02:51:43;5.57;;;1.20;;
45392;SDS011;31129;44.810;10.334;2023-07-13T02:54:09;7.05;;;2.20;;
45392;SDS011;31129;44.810;10.334;2023-07-13T02:56:35;4.80;;;1.67;;
45392;SDS011;31129;44.810;10.334;2023-07-13T02:59:01;7.82;;;1.90;;
45392;SDS011;31129;44.810;10.334;2023-07-13T03:01:27;6.55;;;1.98;;
45392;SDS011;31129;44.810;10.334;2023-07-13T03:03:53;4.55;;;2.13;;
45392;SDS011;31129;44.810;10.334;2023-07-13T03:06:18;10.30;;;3.08;;
45392;SDS011;31129;44.810;10.334;2023-07-13T03:08:50;8.50;;;2.17;;
45392;SDS011;31129;44.810;10.334;2023-07-13T03:11:19;5.45;;;2.10;;
45392;SDS011;31129;44.810;10.334;2023-07-13T03:13:51;7.57;;;1.73;;
45392;SDS011;31129;44.810;10.334;2023-07-13T03:16:19;7.32;;;2.97;;
45392;SDS011;31129;44.810;10.334;2023-07-13T03:21:13;7.20;;;2.03;;
45392;SDS011;31129;44.810;10.334;2023-07-13T03:23:39;13.45;;;5.65;;
45392;SDS011;31129;44.810;10.334;2023-07-13T03:26:07;6.97;;;2.05;;
45392;SDS011;31129;44.810;10.334;2023-07-13T03:28:39;7.18;;;3.20;;
45392;SDS011;31129;44.810;10.334;2023-07-13T03:31:14;12.35;;;2.33;;
45392;SDS011;31129;44.810;10.334;2023-07-13T03:33:42;7.68;;;2.30;;
45392;SDS011;31129;44.810;10.334;2023-07-13T03:36:11;12.15;;;2.75;;
45392;SDS011;31129;44.810;10.334;2023-07-13T03:38:53;6.25;;;2.47;;
45392;SDS011;31129;44.810;10.334;2023-07-13T03:41:24;9.98;;;2.97;;
45392;SDS011;31129;44.810;10.334;2023-07-13T03:43:52;7.78;;;1.90;;
45392;SDS011;31129;44.810;10.334;2023-07-13T03:46:20;9.38;;;1.50;;
45392;SDS011;31129;44.810;10.334;2023-07-13T03:48:46;13.18;;;1.75;;
45392;SDS011;31129;44.810;10.334;2023-07-13T03:51:13;5.60;;;1.80;;
45392;SDS011;31129;44.810;10.334;2023-07-13T03:53:40;10.07;;;1.70;;
45392;SDS011;31129;44.810;10.334;2023-07-13T03:56:07;6.32;;;2.15;;
45392;SDS011;31129;44.810;10.334;2023-07-13T03:58:34;13.75;;;1.90;;
45392;SDS011;31129;44.810;10.334;2023-07-13T04:01:09;8.77;;;1.65;;
45392;SDS011;31129;44.810;10.334;2023-07-13T04:03:35;5.85;;;1.90;;
45392;SDS011;31129;44.810;10.334;2023-07-13T04:06:02;12.68;;;2.00;;
45392;SDS011;31129;44.810;10.334;2023-07-13T04:08:29;5.18;;;2.13;;
45392;SDS011;31129;44.810;10.334;2023-07-13T04:10:58;6.47;;;2.15;;
45392;SDS011;31129;44.810;10.334;2023-07-13T04:13:24;9.23;;;2.85;;
45392;SDS011;31129;44.810;10.334;2023-07-13T04:15:50;19.88;;;3.50;;
45392;SDS011;31129;44.810;10.334;2023-07-13T04:18:16;8.98;;;2.38;;
45392;SDS011;31129;44.810;10.334;2023-07-13T04:20:42;9.13;;;2.40;;
45392;SDS011;31129;44.810;10.334;2023-07-13T04:23:07;7.70;;;2.70;;
45392;SDS011;31129;44.810;10.334;2023-07-13T04:25:33;8.68;;;2.42;;
45392;SDS011;31129;44.810;10.334;2023-07-13T04:27:59;8.88;;;3.05;;
45392;SDS011;31129;44.810;10.334;2023-07-13T04:30:24;10.50;;;2.65;;
45392;SDS011;31129;44.810;10.334;2023-07-13T04:32:51;9.85;;;3.28;;
45392;SDS011;31129;44.810;10.334;2023-07-13T04:35:17;8.55;;;3.17;;
45392;SDS011;31129;44.810;10.334;2023-07-13T04:37:45;16.00;;;3.15;;
45392;SDS011;31129;44.810;10.334;2023-07-13T04:40:11;11.13;;;3.38;;
45392;SDS011;31129;44.810;10.334;2023-07-13T04:42:37;10.60;;;3.10;;
45392;SDS011;31129;44.810;10.334;2023-07-13T04:45:04;7.23;;;2.63;;
45392;SDS011;31129;44.810;10.334;2023-07-13T04:49:56;9.40;;;2.85;;
45392;SDS011;31129;44.810;10.334;2023-07-13T04:52:23;7.18;;;1.85;;
45392;SDS011;31129;44.810;10.334;2023-07-13T04:54:48;7.40;;;2.70;;
45392;SDS011;31129;44.810;10.334;2023-07-13T04:57:14;15.00;;;3.35;;
45392;SDS011;31129;44.810;10.334;2023-07-13T04:59:40;28.30;;;3.20;;
45392;SDS011;31129;44.810;10.334;2023-07-13T05:02:05;5.72;;;3.38;;
45392;SDS011;31129;44.810;10.334;2023-07-13T05:04:31;9.93;;;3.00;;
45392;SDS011;31129;44.810;10.334;2023-07-13T05:06:56;9.45;;;3.42;;
45392;SDS011;31129;44.810;10.334;2023-07-13T05:09:22;5.50;;;3.83;;
45392;SDS011;31129;44.810;10.334;2023-07-13T05:11:47;7.55;;;3.50;;
45392;SDS011;31129;44.810;10.334;2023-07-13T05:14:13;7.50;;;3.30;;
45392;SDS011;31129;44.810;10.334;2023-07-13T05:16:39;11.27;;;3.13;;
45392;SDS011;31129;44.810;10.334;2023-07-13T05:19:04;9.50;;;4.00;;
45392;SDS011;31129;44.810;10.334;2023-07-13T05:21:30;9.38;;;3.00;;
45392;SDS011;31129;44.810;10.334;2023-07-13T05:23:55;13.43;;;3.20;;
45392;SDS011;31129;44.810;10.334;2023-07-13T05:26:21;7.97;;;3.35;;
45392;SDS011;31129;44.810;10.334;2023-07-13T05:28:47;11.23;;;3.58;;
45392;SDS011;31129;44.810;10.334;2023-07-13T05:31:12;8.82;;;2.90;;
45392;SDS011;31129;44.810;10.334;2023-07-13T05:33:38;11.05;;;3.10;;
45392;SDS011;31129;44.810;10.334;2023-07-13T05:36:04;13.75;;;3.13;;
45392;SDS011;31129;44.810;10.334;2023-07-13T05:38:30;8.63;;;2.95;;
45392;SDS011;31129;44.810;10.334;2023-07-13T05:40:55;6.05;;;2.60;;
45392;SDS011;31129;44.810;10.334;2023-07-13T05:45:48;21.95;;;2.80;;
45392;SDS011;31129;44.810;10.334;2023-07-13T05:48:16;9.88;;;2.88;;
45392;SDS011;31129;44.810;10.334;2023-07-13T05:50:41;8.63;;;2.35;;
45392;SDS011;31129;44.810;10.334;2023-07-13T05:53:07;8.43;;;2.40;;
45392;SDS011;31129;44.810;10.334;2023-07-13T05:55:32;8.82;;;2.55;;
45392;SDS011;31129;44.810;10.334;2023-07-13T05:57:58;8.75;;;2.50;;
45392;SDS011;31129;44.810;10.334;2023-07-13T06:00:24;9.15;;;2.13;;
45392;SDS011;31129;44.810;10.334;2023-07-13T06:02:50;11.20;;;2.47;;
45392;SDS011;31129;44.810;10.334;2023-07-13T06:05:16;12.32;;;2.92;;
45392;SDS011;31129;44.810;10.334;2023-07-13T06:07:41;11.48;;;2.95;;
45392;SDS011;31129;44.810;10.334;2023-07-13T06:10:07;13.93;;;3.40;;
45392;SDS011;31129;44.810;10.334;2023-07-13T06:12:33;14.10;;;3.63;;
45392;SDS011;31129;44.810;10.334;2023-07-13T06:14:58;12.73;;;3.20;;
45392;SDS011;31129;44.810;10.334;2023-07-13T06:17:24;13.90;;;2.33;;
45392;SDS011;31129;44.810;10.334;2023-07-13T06:19:49;20.95;;;4.72;;
45392;SDS011;31129;44.810;10.334;2023-07-13T06:22:14;8.43;;;3.28;;
45392;SDS011;31129;44.810;10.334;2023-07-13T06:24:40;13.80;;;3.20;;
45392;SDS011;31129;44.810;10.334;2023-07-13T06:27:05;8.65;;;2.75;;
45392;SDS011;31129;44.810;10.334;2023-07-13T06:29:31;9.60;;;3.40;;
45392;SDS011;31129;44.810;10.334;2023-07-13T06:31:56;17.13;;;2.75;;
45392;SDS011;31129;44.810;10.334;2023-07-13T06:34:22;10.88;;;3.08;;
45392;SDS011;31129;44.810;10.334;2023-07-13T06:36:48;10.00;;;2.85;;
45392;SDS011;31129;44.810;10.334;2023-07-13T06:39:13;11.55;;;2.70;;
45392;SDS011;31129;44.810;10.334;2023-07-13T06:41:39;11.18;;;2.95;;
45392;SDS011;31129;44.810;10.334;2023-07-13T06:44:09;11.32;;;3.42;;
45392;SDS011;31129;44.810;10.334;2023-07-13T06:46:34;10.15;;;3.15;;
45392;SDS011;31129;44.810;10.334;2023-07-13T06:49:00;11.43;;;3.28;;
45392;SDS011;31129;44.810;10.334;2023-07-13T06:51:25;14.82;;;4.18;;
45392;SDS011;31129;44.810;10.334;2023-07-13T06:53:51;16.30;;;4.03;;
45392;SDS011;31129;44.810;10.334;2023-07-13T06:56:16;17.63;;;4.47;;
45392;SDS011;31129;44.810;10.334;2023-07-13T06:58:42;10.77;;;3.72;;
45392;SDS011;31129;44.810;10.334;2023-07-13T07:01:07;20.38;;;3.15;;
45392;SDS011;31129;44.810;10.334;2023-07-13T07:03:33;13.02;;;2.72;;
45392;SDS011;31129;44.810;10.334;2023-07-13T07:06:12;13.18;;;3.10;;
45392;SDS011;31129;44.810;10.334;2023-07-13T07:08:44;11.98;;;3.40;;
45392;SDS011;31129;44.810;10.334;2023-07-13T07:11:14;20.38;;;3.53;;
45392;SDS011;31129;44.810;10.334;2023-07-13T07:13:41;19.02;;;3.03;;
45392;SDS011;31129;44.810;10.334;2023-07-13T07:16:07;9.65;;;2.50;;
45392;SDS011;31129;44.810;10.334;2023-07-13T07:18:33;11.02;;;2.90;;
45392;SDS011;31129;44.810;10.334;2023-07-13T07:20:59;6.82;;;2.30;;
45392;SDS011;31129;44.810;10.334;2023-07-13T07:23:25;18.65;;;3.10;;
45392;SDS011;31129;44.810;10.334;2023-07-13T07:25:50;16.15;;;3.20;;
45392;SDS011;31129;44.810;10.334;2023-07-13T07:28:17;14.45;;;2.90;;
45392;SDS011;31129;44.810;10.334;2023-07-13T07:30:46;5.90;;;2.13;;
45392;SDS011;31129;44.810;10.334;2023-07-13T07:33:13;9.95;;;3.28;;
45392;SDS011;31129;44.810;10.334;2023-07-13T07:35:39;12.30;;;3.03;;
45392;SDS011;31129;44.810;10.334;2023-07-13T07:38:04;14.23;;;3.50;;
45392;SDS011;31129;44.810;10.334;2023-07-13T07:40:30;10.90;;;3.60;;
45392;SDS011;31129;44.810;10.334;2023-07-13T07:42:56;10.05;;;2.92;;
45392;SDS011;31129;44.810;10.334;2023-07-13T07:45:22;16.02;;;3.50;;
45392;SDS011;31129;44.810;10.334;2023-07-13T07:47:47;10.27;;;3.95;;
45392;SDS011;31129;44.810;10.334;2023-07-13T07:50:13;19.27;;;4.35;;
45392;SDS011;31129;44.810;10.334;2023-07-13T07:52:38;12.52;;;3.72;;
45392;SDS011;31129;44.810;10.334;2023-07-13T07:55:05;16.83;;;3.70;;
45392;SDS011;31129;44.810;10.334;2023-07-13T07:59:57;13.27;;;2.78;;
45392;SDS011;31129;44.810;10.334;2023-07-13T08:02:23;7.20;;;2.50;;
45392;SDS011;31129;44.810;10.334;2023-07-13T08:04:49;6.75;;;2.60;;
45392;SDS011;31129;44.810;10.334;2023-07-13T08:07:15;15.32;;;3.22;;
45392;SDS011;31129;44.810;10.334;2023-07-13T08:09:40;10.52;;;2.70;;
45392;SDS011;31129;44.810;10.334;2023-07-13T08:12:06;9.13;;;2.70;;
45392;SDS011;31129;44.810;10.334;2023-07-13T08:14:32;10.35;;;2.38;;
45392;SDS011;31129;44.810;10.334;2023-07-13T08:16:57;16.33;;;3.72;;
45392;SDS011;31129;44.810;10.334;2023-07-13T08:19:23;6.53;;;2.78;;
45392;SDS011;31129;44.810;10.334;2023-07-13T08:21:49;14.63;;;3.78;;
45392;SDS011;31129;44.810;10.334;2023-07-13T08:24:14;6.97;;;3.25;;
45392;SDS011;31129;44.810;10.334;2023-07-13T08:26:40;16.02;;;3.85;;
45392;SDS011;31129;44.810;10.334;2023-07-13T08:29:05;10.02;;;3.10;;
45392;SDS011;31129;44.810;10.334;2023-07-13T08:31:31;8.70;;;3.13;;
45392;SDS011;31129;44.810;10.334;2023-07-13T08:33:57;10.05;;;3.25;;
45392;SDS011;31129;44.810;10.334;2023-07-13T08:36:22;15.43;;;4.10;;
45392;SDS011;31129;44.810;10.334;2023-07-13T08:38:47;16.42;;;5.13;;
45392;SDS011;31129;44.810;10.334;2023-07-13T08:41:14;10.75;;;4.25;;
45392;SDS011;31129;44.810;10.334;2023-07-13T08:43:42;9.43;;;3.78;;
45392;SDS011;31129;44.810;10.334;2023-07-13T08:48:52;24.08;;;5.35;;
45392;SDS011;31129;44.810;10.334;2023-07-13T08:51:24;21.27;;;4.47;;
45392;SDS011;31129;44.810;10.334;2023-07-13T08:53:57;11.40;;;4.47;;
45392;SDS011;31129;44.810;10.334;2023-07-13T08:56:25;16.58;;;4.80;;
45392;SDS011;31129;44.810;10.334;2023-07-13T08:58:55;10.73;;;4.57;;
45392;SDS011;31129;44.810;10.334;2023-07-13T09:04:19;10.02;;;4.82;;
45392;SDS011;31129;44.810;10.334;2023-07-13T09:09:22;13.75;;;4.55;;
45392;SDS011;31129;44.810;10.334;2023-07-13T09:14:54;20.60;;;4.95;;
45392;SDS011;31129;44.810;10.334;2023-07-13T09:17:24;8.65;;;4.07;;
45392;SDS011;31129;44.810;10.334;2023-07-13T09:19:54;14.35;;;3.50;;
45392;SDS011;31129;44.810;10.334;2023-07-13T09:22:24;12.88;;;4.43;;
45392;SDS011;31129;44.810;10.334;2023-07-13T09:24:57;15.05;;;5.30;;
45392;SDS011;31129;44.810;10.334;2023-07-13T09:27:46;15.65;;;4.53;;
45392;SDS011;31129;44.810;10.334;2023-07-13T09:32:39;17.25;;;4.65;;
45392;SDS011;31129;44.810;10.334;2023-07-13T09:35:11;14.50;;;4.40;;
45392;SDS011;31129;44.810;10.334;2023-07-13T09:37:42;14.02;;;5.45;;
45392;SDS011;31129;44.810;10.334;2023-07-13T09:40:11;20.13;;;5.30;;
45392;SDS011;31129;44.810;10.334;2023-07-13T09:42:45;22.17;;;3.80;;
45392;SDS011;31129;44.810;10.334;2023-07-13T09:45:11;12.27;;;4.47;;
45392;SDS011;31129;44.810;10.334;2023-07-13T09:47:53;9.13;;;4.70;;
45392;SDS011;31129;44.810;10.334;2023-07-13T09:50:24;11.43;;;4.40;;
45392;SDS011;31129;44.810;10.334;2023-07-13T09:53:12;9.45;;;4.97;;
45392;SDS011;31129;44.810;10.334;2023-07-13T09:55:43;11.52;;;4.28;;
45392;SDS011;31129;44.810;10.334;2023-07-13T09:58:13;8.00;;;3.40;;
45392;SDS011;31129;44.810;10.334;2023-07-13T10:00:39;16.20;;;5.37;;
45392;SDS011;31129;44.810;10.334;2023-07-13T10:03:23;13.85;;;3.85;;
45392;SDS011;31129;44.810;10.334;2023-07-13T10:05:51;10.30;;;4.13;;
45392;SDS011;31129;44.810;10.334;2023-07-13T10:10:44;12.18;;;4.47;;
45392;SDS011;31129;44.810;10.334;2023-07-13T10:13:33;15.05;;;4.00;;
45392;SDS011;31129;44.810;10.334;2023-07-13T10:16:02;9.25;;;3.30;;
45392;SDS011;31129;44.810;10.334;2023-07-13T10:18:31;15.93;;;3.78;;
45392;SDS011;31129;44.810;10.334;2023-07-13T10:21:17;12.02;;;4.45;;
45392;SDS011;31129;44.810;10.334;2023-07-13T10:23:50;13.18;;;4.03;;
45392;SDS011;31129;44.810;10.334;2023-07-13T10:26:26;10.32;;;3.70;;
45392;SDS011;31129;44.810;10.334;2023-07-13T10:28:56;10.52;;;3.67;;
45392;SDS011;31129;44.810;10.334;2023-07-13T10:31:26;11.88;;;4.47;;
45392;SDS011;31129;44.810;10.334;2023-07-13T10:33:51;14.43;;;4.07;;
45392;SDS011;31129;44.810;10.334;2023-07-13T10:36:27;16.52;;;3.78;;
45392;SDS011;31129;44.810;10.334;2023-07-13T10:38:54;4.32;;;3.40;;
45392;SDS011;31129;44.810;10.334;2023-07-13T10:41:22;11.38;;;4.68;;
45392;SDS011;31129;44.810;10.334;2023-07-13T10:43:51;11.70;;;4.25;;
45392;SDS011;31129;44.810;10.334;2023-07-13T10:46:20;9.80;;;4.05;;
45392;SDS011;31129;44.810;10.334;2023-07-13T10:48:51;15.63;;;3.85;;
45392;SDS011;31129;44.810;10.334;2023-07-13T10:51:20;15.25;;;5.45;;
45392;SDS011;31129;44.810;10.334;2023-07-13T10:53:47;11.52;;;4.93;;
45392;SDS011;31129;44.810;10.334;2023-07-13T10:56:19;12.10;;;4.97;;
45392;SDS011;31129;44.810;10.334;2023-07-13T10:58:46;13.20;;;5.35;;
45392;SDS011;31129;44.810;10.334;2023-07-13T11:01:13;13.75;;;5.47;;
45392;SDS011;31129;44.810;10.334;2023-07-13T11:08:55;15.10;;;5.97;;
45392;SDS011;31129;44.810;10.334;2023-07-13T11:18:45;15.18;;;6.90;;
45392;SDS011;31129;44.810;10.334;2023-07-13T11:21:31;13.43;;;6.28;;
45392;SDS011;31129;44.810;10.334;2023-07-13T11:24:04;17.83;;;6.28;;
45392;SDS011;31129;44.810;10.334;2023-07-13T11:26:39;14.05;;;7.05;;
45392;SDS011;31129;44.810;10.334;2023-07-13T11:31:43;15.02;;;6.55;;
45392;SDS011;31129;44.810;10.334;2023-07-13T11:34:18;16.55;;;6.30;;
45392;SDS011;31129;44.810;10.334;2023-07-13T11:36:50;13.80;;;6.38;;
45392;SDS011;31129;44.810;10.334;2023-07-13T11:42:02;11.07;;;5.22;;
45392;SDS011;31129;44.810;10.334;2023-07-13T11:44:30;10.68;;;5.05;;
45392;SDS011;31129;44.810;10.334;2023-07-13T11:46:58;12.65;;;5.95;;
45392;SDS011;31129;44.810;10.334;2023-07-13T11:49:29;15.38;;;5.78;;
45392;SDS011;31129;44.810;10.334;2023-07-13T11:51:56;14.73;;;6.38;;
45392;SDS011;31129;44.810;10.334;2023-07-13T11:56:48;17.75;;;5.55;;
45392;SDS011;31129;44.810;10.334;2023-07-13T11:59:14;12.88;;;4.60;;
45392;SDS011;31129;44.810;10.334;2023-07-13T12:01:45;15.85;;;5.10;;
45392;SDS011;31129;44.810;10.334;2023-07-13T12:04:19;12.13;;;5.78;;
45392;SDS011;31129;44.810;10.334;2023-07-13T12:06:48;12.48;;;6.07;;
45392;SDS011;31129;44.810;10.334;2023-07-13T12:09:19;14.98;;;4.97;;
45392;SDS011;31129;44.810;10.334;2023-07-13T12:11:50;22.77;;;6.63;;
45392;SDS011;31129;44.810;10.334;2023-07-13T12:14:16;11.77;;;4.90;;
45392;SDS011;31129;44.810;10.334;2023-07-13T12:16:43;16.25;;;5.18;;
45392;SDS011;31129;44.810;10.334;2023-07-13T12:21:42;12.07;;;3.97;;
45392;SDS011;31129;44.810;10.334;2023-07-13T12:24:13;13.73;;;5.65;;
45392;SDS011;31129;44.810;10.334;2023-07-13T12:26:40;13.68;;;4.20;;
45392;SDS011;31129;44.810;10.334;2023-07-13T12:29:06;12.68;;;4.28;;
45392;SDS011;31129;44.810;10.334;2023-07-13T12:31:35;14.23;;;4.13;;
45392;SDS011;31129;44.810;10.334;2023-07-13T12:34:16;15.63;;;4.35;;
45392;SDS011;31129;44.810;10.334;2023-07-13T12:36:56;19.53;;;5.10;;
45392;SDS011;31129;44.810;10.334;2023-07-13T12:39:34;13.80;;;5.18;;
45392;SDS011;31129;44.810;10.334;2023-07-13T12:42:21;16.25;;;4.95;;
45392;SDS011;31129;44.810;10.334;2023-07-13T12:45:15;15.75;;;5.65;;
45392;SDS011;31129;44.810;10.334;2023-07-13T12:47:43;15.65;;;6.72;;
45392;SDS011;31129;44.810;10.334;2023-07-13T12:50:16;22.35;;;4.43;;
45392;SDS011;31129;44.810;10.334;2023-07-13T12:52:56;10.93;;;4.18;;
45392;SDS011;31129;44.810;10.334;2023-07-13T12:55:28;16.67;;;5.00;;
45392;SDS011;31129;44.810;10.334;2023-07-13T12:57:58;14.00;;;4.78;;
45392;SDS011;31129;44.810;10.334;2023-07-13T13:02:58;16.20;;;5.13;;
45392;SDS011;31129;44.810;10.334;2023-07-13T13:05:29;14.88;;;4.97;;
45392;SDS011;31129;44.810;10.334;2023-07-13T13:07:55;17.92;;;4.03;;
45392;SDS011;31129;44.810;10.334;2023-07-13T13:10:21;15.00;;;3.95;;
45392;SDS011;31129;44.810;10.334;2023-07-13T13:12:47;15.50;;;4.28;;
45392;SDS011;31129;44.810;10.334;2023-07-13T13:15:13;18.90;;;5.88;;
45392;SDS011;31129;44.810;10.334;2023-07-13T13:17:38;20.70;;;5.47;;
45392;SDS011;31129;44.810;10.334;2023-07-13T13:20:14;18.67;;;5.47;;
45392;SDS011;31129;44.810;10.334;2023-07-13T13:22:41;21.02;;;5.53;;
45392;SDS011;31129;44.810;10.334;2023-07-13T13:25:09;22.52;;;6.05;;
45392;SDS011;31129;44.810;10.334;2023-07-13T13:27:36;20.48;;;5.57;;
45392;SDS011;31129;44.810;10.334;2023-07-13T13:30:02;14.65;;;5.32;;
45392;SDS011;31129;44.810;10.334;2023-07-13T13:32:28;18.92;;;5.97;;
45392;SDS011;31129;44.810;10.334;2023-07-13T13:34:53;16.92;;;4.70;;
45392;SDS011;31129;44.810;10.334;2023-07-13T13:37:20;13.63;;;4.85;;
45392;SDS011;31129;44.810;10.334;2023-07-13T13:39:47;15.63;;;6.50;;
45392;SDS011;31129;44.810;10.334;2023-07-13T13:42:14;21.02;;;5.88;;
45392;SDS011;31129;44.810;10.334;2023-07-13T13:44:40;18.90;;;5.90;;
45392;SDS011;31129;44.810;10.334;2023-07-13T13:47:19;22.02;;;4.95;;
45392;SDS011;31129;44.810;10.334;2023-07-13T13:49:52;14.30;;;4.43;;
45392;SDS011;31129;44.810;10.334;2023-07-13T13:52:18;16.98;;;5.05;;
45392;SDS011;31129;44.810;10.334;2023-07-13T13:54:43;11.70;;;3.70;;
45392;SDS011;31129;44.810;10.334;2023-07-13T13:57:09;12.00;;;4.38;;
45392;SDS011;31129;44.810;10.334;2023-07-13T13:59:37;18.50;;;4.85;;
45392;SDS011;31129;44.810;10.334;2023-07-13T14:02:11;13.05;;;4.07;;
45392;SDS011;31129;44.810;10.334;2023-07-13T14:04:50;17.25;;;4.90;;
45392;SDS011;31129;44.810;10.334;2023-07-13T14:07:22;13.45;;;4.40;;
45392;SDS011;31129;44.810;10.334;2023-07-13T14:09:47;16.10;;;4.90;;
45392;SDS011;31129;44.810;10.334;2023-07-13T14:12:13;18.65;;;4.50;;
45392;SDS011;31129;44.810;10.334;2023-07-13T14:14:38;18.65;;;4.70;;
45392;SDS011;31129;44.810;10.334;2023-07-13T14:17:04;17.25;;;4.90;;
45392;SDS011;31129;44.810;10.334;2023-07-13T14:19:30;18.10;;;4.75;;
45392;SDS011;31129;44.810;10.334;2023-07-13T14:21:55;18.30;;;5.13;;
45392;SDS011;31129;44.810;10.334;2023-07-13T14:24:20;16.85;;;5.20;;
45392;SDS011;31129;44.810;10.334;2023-07-13T14:26:46;15.85;;;4.85;;
45392;SDS011;31129;44.810;10.334;2023-07-13T14:29:13;21.23;;;4.80;;
45392;SDS011;31129;44.810;10.334;2023-07-13T14:31:41;16.13;;;5.00;;
45392;SDS011;31129;44.810;10.334;2023-07-13T14:34:07;19.30;;;5.10;;
45392;SDS011;31129;44.810;10.334;2023-07-13T14:36:39;15.05;;;4.97;;
45392;SDS011;31129;44.810;10.334;2023-07-13T14:39:20;15.93;;;4.53;;
45392;SDS011;31129;44.810;10.334;2023-07-13T14:44:16;14.07;;;4.13;;
45392;SDS011;31129;44.810;10.334;2023-07-13T14:46:43;15.55;;;4.10;;
45392;SDS011;31129;44.810;10.334;2023-07-13T14:49:15;12.27;;;4.00;;
45392;SDS011;31129;44.810;10.334;2023-07-13T14:51:48;13.82;;;3.92;;
45392;SDS011;31129;44.810;10.334;2023-07-13T14:54:14;17.17;;;4.22;;
45392;SDS011;31129;44.810;10.334;2023-07-13T14:56:39;20.50;;;4.13;;
45392;SDS011;31129;44.810;10.334;2023-07-13T14:59:05;18.27;;;4.53;;
45392;SDS011;31129;44.810;10.334;2023-07-13T15:03:58;9.73;;;4.18;;
45392;SDS011;31129;44.810;10.334;2023-07-13T15:06:24;11.75;;;4.20;;
45392;SDS011;31129;44.810;10.334;2023-07-13T15:08:49;22.67;;;4.13;;
45392;SDS011;31129;44.810;10.334;2023-07-13T15:11:15;14.43;;;4.20;;
45392;SDS011;31129;44.810;10.334;2023-07-13T15:13:41;17.77;;;4.33;;
45392;SDS011;31129;44.810;10.334;2023-07-13T15:16:22;10.23;;;3.83;;
45392;SDS011;31129;44.810;10.334;2023-07-13T15:18:50;17.15;;;4.22;;
45392;SDS011;31129;44.810;10.334;2023-07-13T15:21:21;17.77;;;4.00;;
45392;SDS011;31129;44.810;10.334;2023-07-13T15:23:49;9.25;;;3.95;;
45392;SDS011;31129;44.810;10.334;2023-07-13T15:28:42;13.30;;;3.97;;